sensor_id;sensor_type;location;lat;lon;timestamp;P1;durP1;ratioP1;P2;durP2;ratioP2
61358;SDS011;47228;46.762;23.598;2023-01-16T00:01:03;49.10;;;30.90;;
61358;SDS011;47228;46.762;23.598;2023-01-16T00:03:32;57.00;;;32.00;;
61358;SDS011;47228;46.762;23.598;2023-01-16T00:06:00;51.40;;;30.10;;
61358;SDS011;47228;46.762;23.598;2023-01-16T00:08:28;53.40;;;30.90;;
61358;SDS011;47228;46.762;23.598;2023-01-16T00:10:56;49.80;;;29.80;;
61358;SDS011;47228;46.762;23.598;2023-01-16T00:13:24;47.90;;;29.80;;
61358;SDS011;47228;46.762;23.598;2023-01-16T00:15:51;52.80;;;32.10;;
61358;SDS011;47228;46.762;23.598;2023-01-16T00:18:19;52.70;;;32.40;;
61358;SDS011;47228;46.762;23.598;2023-01-16T00:20:47;58.20;;;32.80;;
61358;SDS011;47228;46.762;23.598;2023-01-16T00:23:18;54.20;;;31.20;;
61358;SDS011;47228;46.762;23.598;2023-01-16T00:25:46;58.60;;;32.80;;
61358;SDS011;47228;46.762;23.598;2023-01-16T00:28:14;52.10;;;32.30;;
61358;SDS011;47228;46.762;23.598;2023-01-16T00:30:43;60.90;;;34.30;;
61358;SDS011;47228;46.762;23.598;2023-01-16T00:33:11;62.00;;;34.40;;
61358;SDS011;47228;46.762;23.598;2023-01-16T00:35:39;61.60;;;35.40;;
61358;SDS011;47228;46.762;23.598;2023-01-16T00:38:07;60.90;;;34.10;;
61358;SDS011;47228;46.762;23.598;2023-01-16T00:40:35;62.10;;;34.60;;
61358;SDS011;47228;46.762;23.598;2023-01-16T00:43:03;54.20;;;32.40;;
61358;SDS011;47228;46.762;23.598;2023-01-16T00:45:31;56.10;;;31.10;;
61358;SDS011;47228;46.762;23.598;2023-01-16T00:47:59;57.70;;;32.50;;
61358;SDS011;47228;46.762;23.598;2023-01-16T00:50:27;58.70;;;32.40;;
61358;SDS011;47228;46.762;23.598;2023-01-16T00:52:55;53.40;;;31.30;;
61358;SDS011;47228;46.762;23.598;2023-01-16T00:55:23;56.80;;;32.60;;
61358;SDS011;47228;46.762;23.598;2023-01-16T00:57:51;58.00;;;35.00;;
61358;SDS011;47228;46.762;23.598;2023-01-16T01:00:19;62.40;;;36.30;;
61358;SDS011;47228;46.762;23.598;2023-01-16T01:02:48;58.70;;;32.50;;
61358;SDS011;47228;46.762;23.598;2023-01-16T01:05:17;62.60;;;36.40;;
61358;SDS011;47228;46.762;23.598;2023-01-16T01:07:45;53.10;;;33.10;;
61358;SDS011;47228;46.762;23.598;2023-01-16T01:10:13;54.90;;;32.20;;
61358;SDS011;47228;46.762;23.598;2023-01-16T01:12:41;57.10;;;34.20;;
61358;SDS011;47228;46.762;23.598;2023-01-16T01:15:09;60.00;;;34.60;;
61358;SDS011;47228;46.762;23.598;2023-01-16T01:17:37;60.50;;;34.80;;
61358;SDS011;47228;46.762;23.598;2023-01-16T01:20:05;52.60;;;31.00;;
61358;SDS011;47228;46.762;23.598;2023-01-16T01:22:33;55.50;;;31.60;;
61358;SDS011;47228;46.762;23.598;2023-01-16T01:25:01;54.40;;;31.40;;
61358;SDS011;47228;46.762;23.598;2023-01-16T01:27:29;47.00;;;28.20;;
61358;SDS011;47228;46.762;23.598;2023-01-16T01:29:57;46.30;;;27.80;;
61358;SDS011;47228;46.762;23.598;2023-01-16T01:32:25;46.80;;;27.50;;
61358;SDS011;47228;46.762;23.598;2023-01-16T01:34:53;44.40;;;25.70;;
61358;SDS011;47228;46.762;23.598;2023-01-16T01:37:21;45.40;;;26.10;;
61358;SDS011;47228;46.762;23.598;2023-01-16T01:39:48;38.00;;;24.20;;
61358;SDS011;47228;46.762;23.598;2023-01-16T01:42:17;38.80;;;23.00;;
61358;SDS011;47228;46.762;23.598;2023-01-16T01:45:25;35.90;;;22.00;;
61358;SDS011;47228;46.762;23.598;2023-01-16T01:50:35;33.10;;;20.90;;
61358;SDS011;47228;46.762;23.598;2023-01-16T01:53:18;36.70;;;23.20;;
61358;SDS011;47228;46.762;23.598;2023-01-16T01:55:51;34.80;;;22.10;;
61358;SDS011;47228;46.762;23.598;2023-01-16T01:58:22;38.60;;;23.20;;
61358;SDS011;47228;46.762;23.598;2023-01-16T02:00:53;34.80;;;21.50;;
61358;SDS011;47228;46.762;23.598;2023-01-16T02:03:27;39.80;;;21.40;;
61358;SDS011;47228;46.762;23.598;2023-01-16T02:05:57;34.10;;;21.50;;
61358;SDS011;47228;46.762;23.598;2023-01-16T02:08:30;49.20;;;22.90;;
61358;SDS011;47228;46.762;23.598;2023-01-16T02:11:02;36.60;;;21.50;;
61358;SDS011;47228;46.762;23.598;2023-01-16T02:13:31;39.20;;;23.80;;
61358;SDS011;47228;46.762;23.598;2023-01-16T02:15:59;43.20;;;24.40;;
61358;SDS011;47228;46.762;23.598;2023-01-16T02:18:45;39.70;;;23.70;;
61358;SDS011;47228;46.762;23.598;2023-01-16T02:26:51;42.30;;;23.90;;
61358;SDS011;47228;46.762;23.598;2023-01-16T02:32:50;41.60;;;23.90;;
61358;SDS011;47228;46.762;23.598;2023-01-16T02:35:34;41.10;;;25.30;;
61358;SDS011;47228;46.762;23.598;2023-01-16T02:47:08;47.40;;;28.00;;
61358;SDS011;47228;46.762;23.598;2023-01-16T02:49:47;49.60;;;28.20;;
61358;SDS011;47228;46.762;23.598;2023-01-16T02:55:01;50.90;;;28.60;;
61358;SDS011;47228;46.762;23.598;2023-01-16T02:57:40;51.60;;;27.90;;
61358;SDS011;47228;46.762;23.598;2023-01-16T03:00:14;45.80;;;27.00;;
61358;SDS011;47228;46.762;23.598;2023-01-16T03:02:44;51.50;;;27.70;;
61358;SDS011;47228;46.762;23.598;2023-01-16T03:05:13;54.50;;;29.40;;
61358;SDS011;47228;46.762;23.598;2023-01-16T03:10:42;47.70;;;27.40;;
61358;SDS011;47228;46.762;23.598;2023-01-16T03:16:21;54.00;;;29.00;;
61358;SDS011;47228;46.762;23.598;2023-01-16T03:24:30;51.90;;;27.10;;
61358;SDS011;47228;46.762;23.598;2023-01-16T03:30:03;50.40;;;26.80;;
61358;SDS011;47228;46.762;23.598;2023-01-16T03:35:27;51.70;;;26.70;;
61358;SDS011;47228;46.762;23.598;2023-01-16T03:38:03;52.20;;;27.80;;
61358;SDS011;47228;46.762;23.598;2023-01-16T03:40:36;48.20;;;26.30;;
61358;SDS011;47228;46.762;23.598;2023-01-16T03:43:19;48.00;;;27.00;;
61358;SDS011;47228;46.762;23.598;2023-01-16T03:45:56;52.30;;;26.90;;
61358;SDS011;47228;46.762;23.598;2023-01-16T03:51:04;51.80;;;28.00;;
61358;SDS011;47228;46.762;23.598;2023-01-16T03:53:35;51.50;;;28.20;;
61358;SDS011;47228;46.762;23.598;2023-01-16T03:56:14;49.10;;;26.90;;
61358;SDS011;47228;46.762;23.598;2023-01-16T03:58:49;57.20;;;28.00;;
61358;SDS011;47228;46.762;23.598;2023-01-16T04:01:37;51.10;;;29.60;;
61358;SDS011;47228;46.762;23.598;2023-01-16T04:07:18;75.80;;;38.90;;
61358;SDS011;47228;46.762;23.598;2023-01-16T04:09:53;70.60;;;37.20;;
61358;SDS011;47228;46.762;23.598;2023-01-16T04:12:27;69.00;;;35.30;;
61358;SDS011;47228;46.762;23.598;2023-01-16T04:14:59;63.50;;;32.40;;
61358;SDS011;47228;46.762;23.598;2023-01-16T04:17:31;64.60;;;32.40;;
61358;SDS011;47228;46.762;23.598;2023-01-16T04:20:02;60.80;;;30.70;;
61358;SDS011;47228;46.762;23.598;2023-01-16T04:22:31;64.10;;;31.50;;
61358;SDS011;47228;46.762;23.598;2023-01-16T04:25:00;67.30;;;34.70;;
61358;SDS011;47228;46.762;23.598;2023-01-16T04:27:30;71.80;;;32.60;;
61358;SDS011;47228;46.762;23.598;2023-01-16T04:29:58;74.80;;;37.50;;
61358;SDS011;47228;46.762;23.598;2023-01-16T04:32:26;79.10;;;37.20;;
61358;SDS011;47228;46.762;23.598;2023-01-16T04:34:54;71.20;;;35.10;;
61358;SDS011;47228;46.762;23.598;2023-01-16T04:37:22;71.90;;;32.30;;
61358;SDS011;47228;46.762;23.598;2023-01-16T04:39:50;72.20;;;35.00;;
61358;SDS011;47228;46.762;23.598;2023-01-16T04:42:18;61.90;;;30.60;;
61358;SDS011;47228;46.762;23.598;2023-01-16T04:44:46;68.20;;;32.10;;
61358;SDS011;47228;46.762;23.598;2023-01-16T04:47:14;69.90;;;31.00;;
61358;SDS011;47228;46.762;23.598;2023-01-16T04:49:42;62.20;;;31.30;;
61358;SDS011;47228;46.762;23.598;2023-01-16T04:52:13;58.40;;;28.90;;
61358;SDS011;47228;46.762;23.598;2023-01-16T04:54:41;59.30;;;30.30;;
61358;SDS011;47228;46.762;23.598;2023-01-16T04:57:09;58.10;;;29.50;;
61358;SDS011;47228;46.762;23.598;2023-01-16T04:59:37;52.00;;;27.40;;
61358;SDS011;47228;46.762;23.598;2023-01-16T05:02:05;56.10;;;28.40;;
61358;SDS011;47228;46.762;23.598;2023-01-16T05:04:33;58.20;;;29.20;;
61358;SDS011;47228;46.762;23.598;2023-01-16T05:07:01;60.10;;;31.00;;
61358;SDS011;47228;46.762;23.598;2023-01-16T05:09:29;58.70;;;28.10;;
61358;SDS011;47228;46.762;23.598;2023-01-16T05:11:57;55.10;;;28.80;;
61358;SDS011;47228;46.762;23.598;2023-01-16T05:14:24;53.10;;;29.00;;
61358;SDS011;47228;46.762;23.598;2023-01-16T05:16:52;60.70;;;29.00;;
61358;SDS011;47228;46.762;23.598;2023-01-16T05:19:20;55.50;;;28.10;;
61358;SDS011;47228;46.762;23.598;2023-01-16T05:21:48;51.90;;;27.90;;
61358;SDS011;47228;46.762;23.598;2023-01-16T05:24:16;57.50;;;27.90;;
61358;SDS011;47228;46.762;23.598;2023-01-16T05:26:44;55.60;;;28.20;;
61358;SDS011;47228;46.762;23.598;2023-01-16T05:29:12;56.00;;;31.20;;
61358;SDS011;47228;46.762;23.598;2023-01-16T05:31:39;50.80;;;26.10;;
61358;SDS011;47228;46.762;23.598;2023-01-16T05:34:08;58.70;;;29.90;;
61358;SDS011;47228;46.762;23.598;2023-01-16T05:36:36;60.10;;;28.40;;
61358;SDS011;47228;46.762;23.598;2023-01-16T05:39:04;56.40;;;28.10;;
61358;SDS011;47228;46.762;23.598;2023-01-16T05:41:32;55.60;;;29.80;;
61358;SDS011;47228;46.762;23.598;2023-01-16T05:44:00;60.90;;;30.00;;
61358;SDS011;47228;46.762;23.598;2023-01-16T05:46:28;61.90;;;29.40;;
61358;SDS011;47228;46.762;23.598;2023-01-16T05:48:56;60.20;;;30.30;;
61358;SDS011;47228;46.762;23.598;2023-01-16T05:51:24;55.10;;;28.50;;
61358;SDS011;47228;46.762;23.598;2023-01-16T05:53:52;60.30;;;30.00;;
61358;SDS011;47228;46.762;23.598;2023-01-16T05:56:21;57.90;;;28.50;;
61358;SDS011;47228;46.762;23.598;2023-01-16T05:58:49;56.70;;;28.60;;
61358;SDS011;47228;46.762;23.598;2023-01-16T06:01:17;58.50;;;28.30;;
61358;SDS011;47228;46.762;23.598;2023-01-16T06:03:45;52.20;;;26.10;;
61358;SDS011;47228;46.762;23.598;2023-01-16T06:06:13;55.60;;;28.40;;
61358;SDS011;47228;46.762;23.598;2023-01-16T06:08:45;55.90;;;27.80;;
61358;SDS011;47228;46.762;23.598;2023-01-16T06:11:14;58.60;;;29.30;;
61358;SDS011;47228;46.762;23.598;2023-01-16T06:13:42;58.50;;;28.00;;
61358;SDS011;47228;46.762;23.598;2023-01-16T06:16:10;55.20;;;28.10;;
61358;SDS011;47228;46.762;23.598;2023-01-16T06:18:38;62.70;;;28.70;;
61358;SDS011;47228;46.762;23.598;2023-01-16T06:21:06;65.90;;;30.90;;
61358;SDS011;47228;46.762;23.598;2023-01-16T06:23:34;60.00;;;29.40;;
61358;SDS011;47228;46.762;23.598;2023-01-16T06:26:02;64.30;;;29.70;;
61358;SDS011;47228;46.762;23.598;2023-01-16T06:28:33;65.70;;;31.10;;
61358;SDS011;47228;46.762;23.598;2023-01-16T06:31:01;61.30;;;30.00;;
61358;SDS011;47228;46.762;23.598;2023-01-16T06:33:28;60.00;;;29.40;;
61358;SDS011;47228;46.762;23.598;2023-01-16T06:35:57;64.00;;;30.20;;
61358;SDS011;47228;46.762;23.598;2023-01-16T06:38:25;63.80;;;30.00;;
61358;SDS011;47228;46.762;23.598;2023-01-16T06:40:53;62.40;;;29.10;;
61358;SDS011;47228;46.762;23.598;2023-01-16T06:43:24;67.10;;;30.40;;
61358;SDS011;47228;46.762;23.598;2023-01-16T06:45:55;60.70;;;29.10;;
61358;SDS011;47228;46.762;23.598;2023-01-16T06:48:23;65.60;;;31.80;;
61358;SDS011;47228;46.762;23.598;2023-01-16T06:50:51;63.50;;;30.90;;
61358;SDS011;47228;46.762;23.598;2023-01-16T06:53:21;61.10;;;29.80;;
61358;SDS011;47228;46.762;23.598;2023-01-16T06:55:49;59.50;;;27.80;;
61358;SDS011;47228;46.762;23.598;2023-01-16T06:58:18;61.70;;;29.80;;
61358;SDS011;47228;46.762;23.598;2023-01-16T07:00:46;65.20;;;30.40;;
61358;SDS011;47228;46.762;23.598;2023-01-16T07:03:18;66.90;;;30.30;;
61358;SDS011;47228;46.762;23.598;2023-01-16T07:05:48;67.80;;;30.60;;
61358;SDS011;47228;46.762;23.598;2023-01-16T07:08:16;64.80;;;31.50;;
61358;SDS011;47228;46.762;23.598;2023-01-16T07:10:44;56.50;;;29.50;;
61358;SDS011;47228;46.762;23.598;2023-01-16T07:13:12;63.60;;;31.00;;
61358;SDS011;47228;46.762;23.598;2023-01-16T07:15:45;60.50;;;27.80;;
61358;SDS011;47228;46.762;23.598;2023-01-16T07:18:33;60.20;;;28.70;;
61358;SDS011;47228;46.762;23.598;2023-01-16T07:21:20;59.90;;;29.90;;
61358;SDS011;47228;46.762;23.598;2023-01-16T07:24:10;66.50;;;30.70;;
61358;SDS011;47228;46.762;23.598;2023-01-16T07:26:44;65.60;;;32.00;;
61358;SDS011;47228;46.762;23.598;2023-01-16T07:29:14;68.00;;;33.40;;
61358;SDS011;47228;46.762;23.598;2023-01-16T07:31:42;64.90;;;31.80;;
61358;SDS011;47228;46.762;23.598;2023-01-16T07:34:11;72.10;;;32.30;;
61358;SDS011;47228;46.762;23.598;2023-01-16T07:36:39;70.70;;;31.50;;
61358;SDS011;47228;46.762;23.598;2023-01-16T07:39:06;64.60;;;30.00;;
61358;SDS011;47228;46.762;23.598;2023-01-16T07:41:34;64.40;;;29.40;;
61358;SDS011;47228;46.762;23.598;2023-01-16T07:44:03;73.30;;;33.00;;
61358;SDS011;47228;46.762;23.598;2023-01-16T07:46:31;71.80;;;33.20;;
61358;SDS011;47228;46.762;23.598;2023-01-16T07:49:00;66.30;;;30.40;;
61358;SDS011;47228;46.762;23.598;2023-01-16T07:51:27;68.70;;;31.10;;
61358;SDS011;47228;46.762;23.598;2023-01-16T07:53:55;70.70;;;31.00;;
61358;SDS011;47228;46.762;23.598;2023-01-16T07:56:23;67.00;;;32.70;;
61358;SDS011;47228;46.762;23.598;2023-01-16T07:58:51;79.50;;;35.10;;
61358;SDS011;47228;46.762;23.598;2023-01-16T08:01:21;77.80;;;34.90;;
61358;SDS011;47228;46.762;23.598;2023-01-16T08:03:49;71.30;;;34.40;;
61358;SDS011;47228;46.762;23.598;2023-01-16T08:06:17;75.60;;;34.20;;
61358;SDS011;47228;46.762;23.598;2023-01-16T08:08:45;76.40;;;35.00;;
61358;SDS011;47228;46.762;23.598;2023-01-16T08:11:13;75.10;;;35.00;;
61358;SDS011;47228;46.762;23.598;2023-01-16T08:14:00;75.00;;;33.60;;
61358;SDS011;47228;46.762;23.598;2023-01-16T08:16:28;82.00;;;35.60;;
61358;SDS011;47228;46.762;23.598;2023-01-16T08:18:56;77.30;;;35.20;;
61358;SDS011;47228;46.762;23.598;2023-01-16T08:21:24;76.10;;;34.60;;
61358;SDS011;47228;46.762;23.598;2023-01-16T08:23:52;70.00;;;33.10;;
61358;SDS011;47228;46.762;23.598;2023-01-16T08:26:20;77.40;;;36.50;;
61358;SDS011;47228;46.762;23.598;2023-01-16T08:28:48;83.10;;;37.70;;
61358;SDS011;47228;46.762;23.598;2023-01-16T08:31:16;76.60;;;35.10;;
61358;SDS011;47228;46.762;23.598;2023-01-16T08:33:45;78.70;;;36.00;;
61358;SDS011;47228;46.762;23.598;2023-01-16T08:36:15;82.80;;;38.30;;
61358;SDS011;47228;46.762;23.598;2023-01-16T08:38:43;86.50;;;38.00;;
61358;SDS011;47228;46.762;23.598;2023-01-16T08:41:11;78.90;;;35.10;;
61358;SDS011;47228;46.762;23.598;2023-01-16T08:43:58;78.40;;;37.70;;
61358;SDS011;47228;46.762;23.598;2023-01-16T08:46:47;80.00;;;35.70;;
61358;SDS011;47228;46.762;23.598;2023-01-16T08:49:47;83.20;;;38.20;;
61358;SDS011;47228;46.762;23.598;2023-01-16T08:52:35;75.50;;;36.60;;
61358;SDS011;47228;46.762;23.598;2023-01-16T08:55:05;74.20;;;35.00;;
61358;SDS011;47228;46.762;23.598;2023-01-16T08:57:34;83.30;;;38.20;;
61358;SDS011;47228;46.762;23.598;2023-01-16T09:00:03;79.30;;;36.70;;
61358;SDS011;47228;46.762;23.598;2023-01-16T09:02:33;71.00;;;37.80;;
61358;SDS011;47228;46.762;23.598;2023-01-16T09:05:04;81.50;;;38.30;;
61358;SDS011;47228;46.762;23.598;2023-01-16T09:07:32;83.60;;;38.20;;
61358;SDS011;47228;46.762;23.598;2023-01-16T09:10:00;77.10;;;36.20;;
61358;SDS011;47228;46.762;23.598;2023-01-16T09:12:28;77.30;;;37.70;;
61358;SDS011;47228;46.762;23.598;2023-01-16T09:15:14;74.10;;;35.40;;
61358;SDS011;47228;46.762;23.598;2023-01-16T09:17:42;74.10;;;35.60;;
61358;SDS011;47228;46.762;23.598;2023-01-16T09:20:10;71.60;;;36.00;;
61358;SDS011;47228;46.762;23.598;2023-01-16T09:22:38;79.20;;;35.90;;
61358;SDS011;47228;46.762;23.598;2023-01-16T09:25:06;80.00;;;35.90;;
61358;SDS011;47228;46.762;23.598;2023-01-16T09:27:34;84.70;;;37.70;;
61358;SDS011;47228;46.762;23.598;2023-01-16T09:30:03;75.00;;;36.20;;
61358;SDS011;47228;46.762;23.598;2023-01-16T09:32:31;74.80;;;36.10;;
61358;SDS011;47228;46.762;23.598;2023-01-16T09:35:01;72.90;;;36.70;;
61358;SDS011;47228;46.762;23.598;2023-01-16T09:37:29;78.10;;;37.80;;
61358;SDS011;47228;46.762;23.598;2023-01-16T09:39:57;89.40;;;38.40;;
61358;SDS011;47228;46.762;23.598;2023-01-16T09:42:44;75.80;;;34.50;;
61358;SDS011;47228;46.762;23.598;2023-01-16T09:45:53;78.80;;;36.90;;
61358;SDS011;47228;46.762;23.598;2023-01-16T09:48:31;86.80;;;37.90;;
61358;SDS011;47228;46.762;23.598;2023-01-16T09:51:07;81.70;;;37.20;;
61358;SDS011;47228;46.762;23.598;2023-01-16T09:56:34;76.10;;;34.60;;
61358;SDS011;47228;46.762;23.598;2023-01-16T10:04:34;79.20;;;36.30;;
61358;SDS011;47228;46.762;23.598;2023-01-16T10:07:16;91.70;;;39.10;;
61358;SDS011;47228;46.762;23.598;2023-01-16T10:12:31;76.20;;;35.10;;
61358;SDS011;47228;46.762;23.598;2023-01-16T10:15:13;74.60;;;34.40;;
61358;SDS011;47228;46.762;23.598;2023-01-16T10:17:59;79.80;;;36.10;;
61358;SDS011;47228;46.762;23.598;2023-01-16T10:24:00;79.30;;;34.60;;
61358;SDS011;47228;46.762;23.598;2023-01-16T10:31:57;70.80;;;34.40;;
61358;SDS011;47228;46.762;23.598;2023-01-16T10:34:30;79.70;;;35.50;;
61358;SDS011;47228;46.762;23.598;2023-01-16T10:37:01;79.80;;;36.00;;
61358;SDS011;47228;46.762;23.598;2023-01-16T10:39:32;74.70;;;32.70;;
61358;SDS011;47228;46.762;23.598;2023-01-16T10:47:51;78.90;;;34.10;;
61358;SDS011;47228;46.762;23.598;2023-01-16T10:50:38;72.60;;;32.80;;
61358;SDS011;47228;46.762;23.598;2023-01-16T10:53:08;71.20;;;32.40;;
61358;SDS011;47228;46.762;23.598;2023-01-16T10:55:39;76.80;;;35.60;;
61358;SDS011;47228;46.762;23.598;2023-01-16T11:01:03;80.50;;;34.00;;
61358;SDS011;47228;46.762;23.598;2023-01-16T11:06:16;81.60;;;35.40;;
61358;SDS011;47228;46.762;23.598;2023-01-16T11:08:47;81.30;;;36.40;;
61358;SDS011;47228;46.762;23.598;2023-01-16T11:11:17;77.50;;;33.00;;
61358;SDS011;47228;46.762;23.598;2023-01-16T11:17:26;71.40;;;31.30;;
61358;SDS011;47228;46.762;23.598;2023-01-16T11:20:18;64.60;;;29.00;;
61358;SDS011;47228;46.762;23.598;2023-01-16T11:22:50;75.00;;;30.50;;
61358;SDS011;47228;46.762;23.598;2023-01-16T11:25:26;65.80;;;28.50;;
61358;SDS011;47228;46.762;23.598;2023-01-16T11:27:55;69.50;;;28.10;;
61358;SDS011;47228;46.762;23.598;2023-01-16T11:30:29;65.10;;;28.00;;
61358;SDS011;47228;46.762;23.598;2023-01-16T11:33:04;65.90;;;28.60;;
61358;SDS011;47228;46.762;23.598;2023-01-16T11:35:36;68.70;;;30.60;;
61358;SDS011;47228;46.762;23.598;2023-01-16T11:38:04;64.20;;;29.00;;
61358;SDS011;47228;46.762;23.598;2023-01-16T11:40:35;71.00;;;29.30;;
61358;SDS011;47228;46.762;23.598;2023-01-16T11:43:15;70.70;;;29.10;;
61358;SDS011;47228;46.762;23.598;2023-01-16T11:46:18;65.30;;;27.40;;
61358;SDS011;47228;46.762;23.598;2023-01-16T11:48:51;69.80;;;28.70;;
61358;SDS011;47228;46.762;23.598;2023-01-16T11:51:24;67.10;;;27.50;;
61358;SDS011;47228;46.762;23.598;2023-01-16T11:53:55;66.40;;;28.80;;
61358;SDS011;47228;46.762;23.598;2023-01-16T11:59:47;70.60;;;28.30;;
61358;SDS011;47228;46.762;23.598;2023-01-16T12:02:55;65.00;;;29.20;;
61358;SDS011;47228;46.762;23.598;2023-01-16T12:14:47;61.30;;;26.50;;
61358;SDS011;47228;46.762;23.598;2023-01-16T12:26:26;68.30;;;29.80;;
61358;SDS011;47228;46.762;23.598;2023-01-16T12:32:09;64.80;;;30.10;;
61358;SDS011;47228;46.762;23.598;2023-01-16T12:37:32;69.80;;;32.90;;
61358;SDS011;47228;46.762;23.598;2023-01-16T12:40:29;75.90;;;29.90;;
61358;SDS011;47228;46.762;23.598;2023-01-16T12:43:22;65.50;;;30.20;;
61358;SDS011;47228;46.762;23.598;2023-01-16T12:46:09;66.60;;;29.50;;
61358;SDS011;47228;46.762;23.598;2023-01-16T12:54:43;64.20;;;27.50;;
61358;SDS011;47228;46.762;23.598;2023-01-16T13:00:19;69.90;;;28.30;;
61358;SDS011;47228;46.762;23.598;2023-01-16T13:02:52;73.50;;;28.00;;
61358;SDS011;47228;46.762;23.598;2023-01-16T13:05:31;65.30;;;28.00;;
61358;SDS011;47228;46.762;23.598;2023-01-16T13:08:16;74.70;;;29.00;;
61358;SDS011;47228;46.762;23.598;2023-01-16T13:10:50;41.40;;;19.00;;
61358;SDS011;47228;46.762;23.598;2023-01-16T13:13:47;46.00;;;20.30;;
61358;SDS011;47228;46.762;23.598;2023-01-16T13:16:36;38.20;;;17.70;;
61358;SDS011;47228;46.762;23.598;2023-01-16T13:19:15;40.00;;;18.40;;
61358;SDS011;47228;46.762;23.598;2023-01-16T13:21:58;43.30;;;17.10;;
61358;SDS011;47228;46.762;23.598;2023-01-16T13:24:38;40.90;;;15.60;;
61358;SDS011;47228;46.762;23.598;2023-01-16T13:27:15;40.50;;;17.70;;
61358;SDS011;47228;46.762;23.598;2023-01-16T13:29:55;40.90;;;18.60;;
61358;SDS011;47228;46.762;23.598;2023-01-16T13:32:30;45.10;;;18.10;;
61358;SDS011;47228;46.762;23.598;2023-01-16T13:43:47;51.80;;;19.10;;
61358;SDS011;47228;46.762;23.598;2023-01-16T13:46:35;45.60;;;19.00;;
61358;SDS011;47228;46.762;23.598;2023-01-16T13:49:04;43.10;;;19.90;;
61358;SDS011;47228;46.762;23.598;2023-01-16T13:51:40;44.30;;;18.80;;
61358;SDS011;47228;46.762;23.598;2023-01-16T13:54:15;46.20;;;19.70;;
61358;SDS011;47228;46.762;23.598;2023-01-16T13:56:56;40.20;;;17.50;;
61358;SDS011;47228;46.762;23.598;2023-01-16T14:08:19;44.10;;;18.40;;
61358;SDS011;47228;46.762;23.598;2023-01-16T14:13:44;36.40;;;17.00;;
61358;SDS011;47228;46.762;23.598;2023-01-16T14:18:59;35.90;;;16.90;;
61358;SDS011;47228;46.762;23.598;2023-01-16T14:24:38;33.20;;;15.70;;
61358;SDS011;47228;46.762;23.598;2023-01-16T14:27:12;34.60;;;15.50;;
61358;SDS011;47228;46.762;23.598;2023-01-16T14:29:47;41.80;;;18.10;;
61358;SDS011;47228;46.762;23.598;2023-01-16T14:32:18;36.20;;;15.80;;
61358;SDS011;47228;46.762;23.598;2023-01-16T14:40:28;36.40;;;15.70;;
61358;SDS011;47228;46.762;23.598;2023-01-16T14:43:19;36.70;;;16.30;;
61358;SDS011;47228;46.762;23.598;2023-01-16T14:58:44;34.20;;;15.10;;
61358;SDS011;47228;46.762;23.598;2023-01-16T15:01:20;38.30;;;15.80;;
61358;SDS011;47228;46.762;23.598;2023-01-16T15:04:17;35.10;;;15.00;;
61358;SDS011;47228;46.762;23.598;2023-01-16T15:06:50;34.50;;;15.50;;
61358;SDS011;47228;46.762;23.598;2023-01-16T15:09:27;41.50;;;16.50;;
61358;SDS011;47228;46.762;23.598;2023-01-16T15:11:57;33.80;;;15.90;;
61358;SDS011;47228;46.762;23.598;2023-01-16T15:14:27;36.00;;;14.80;;
61358;SDS011;47228;46.762;23.598;2023-01-16T15:19:57;33.70;;;13.50;;
61358;SDS011;47228;46.762;23.598;2023-01-16T15:23:04;34.70;;;14.40;;
61358;SDS011;47228;46.762;23.598;2023-01-16T15:25:48;34.10;;;15.00;;
61358;SDS011;47228;46.762;23.598;2023-01-16T15:31:29;32.40;;;14.80;;
61358;SDS011;47228;46.762;23.598;2023-01-16T15:34:04;32.90;;;13.70;;
61358;SDS011;47228;46.762;23.598;2023-01-16T15:36:44;36.30;;;15.20;;
61358;SDS011;47228;46.762;23.598;2023-01-16T15:45:25;34.70;;;14.50;;
61358;SDS011;47228;46.762;23.598;2023-01-16T15:48:24;34.20;;;15.10;;
61358;SDS011;47228;46.762;23.598;2023-01-16T15:51:11;32.70;;;14.80;;
61358;SDS011;47228;46.762;23.598;2023-01-16T15:53:44;34.30;;;15.40;;
61358;SDS011;47228;46.762;23.598;2023-01-16T15:58:53;37.40;;;16.60;;
61358;SDS011;47228;46.762;23.598;2023-01-16T16:03:58;89.90;;;30.10;;
61358;SDS011;47228;46.762;23.598;2023-01-16T16:06:28;56.50;;;24.30;;
61358;SDS011;47228;46.762;23.598;2023-01-16T16:08:58;48.70;;;22.30;;
61358;SDS011;47228;46.762;23.598;2023-01-16T16:11:26;44.20;;;19.60;;
61358;SDS011;47228;46.762;23.598;2023-01-16T16:14:19;50.10;;;19.90;;
61358;SDS011;47228;46.762;23.598;2023-01-16T16:17:26;45.20;;;19.20;;
61358;SDS011;47228;46.762;23.598;2023-01-16T16:28:04;35.50;;;15.90;;
61358;SDS011;47228;46.762;23.598;2023-01-16T16:30:41;35.00;;;15.70;;
61358;SDS011;47228;46.762;23.598;2023-01-16T16:33:16;37.80;;;16.00;;
61358;SDS011;47228;46.762;23.598;2023-01-16T16:35:49;35.60;;;16.90;;
61358;SDS011;47228;46.762;23.598;2023-01-16T16:38:20;34.90;;;16.10;;
61358;SDS011;47228;46.762;23.598;2023-01-16T16:43:44;38.00;;;17.30;;
61358;SDS011;47228;46.762;23.598;2023-01-16T16:49:09;40.90;;;17.40;;
61358;SDS011;47228;46.762;23.598;2023-01-16T16:51:43;40.10;;;18.60;;
61358;SDS011;47228;46.762;23.598;2023-01-16T16:54:14;42.40;;;18.20;;
61358;SDS011;47228;46.762;23.598;2023-01-16T16:57:07;36.50;;;17.50;;
61358;SDS011;47228;46.762;23.598;2023-01-16T16:59:32;40.70;;;16.40;;
61358;SDS011;47228;46.762;23.598;2023-01-16T17:02:05;37.20;;;17.50;;
61358;SDS011;47228;46.762;23.598;2023-01-16T17:04:36;34.00;;;17.10;;
61358;SDS011;47228;46.762;23.598;2023-01-16T17:07:04;42.10;;;18.30;;
61358;SDS011;47228;46.762;23.598;2023-01-16T17:09:33;35.30;;;17.60;;
61358;SDS011;47228;46.762;23.598;2023-01-16T17:12:17;44.30;;;19.90;;
61358;SDS011;47228;46.762;23.598;2023-01-16T17:14:48;38.30;;;18.60;;
61358;SDS011;47228;46.762;23.598;2023-01-16T17:17:17;39.10;;;17.90;;
61358;SDS011;47228;46.762;23.598;2023-01-16T17:19:46;37.40;;;17.30;;
61358;SDS011;47228;46.762;23.598;2023-01-16T17:22:14;41.30;;;18.30;;
61358;SDS011;47228;46.762;23.598;2023-01-16T17:24:42;41.50;;;19.00;;
61358;SDS011;47228;46.762;23.598;2023-01-16T17:27:10;40.40;;;19.40;;
61358;SDS011;47228;46.762;23.598;2023-01-16T17:29:38;39.20;;;20.00;;
61358;SDS011;47228;46.762;23.598;2023-01-16T17:32:23;44.90;;;20.50;;
61358;SDS011;47228;46.762;23.598;2023-01-16T17:34:57;39.70;;;17.80;;
61358;SDS011;47228;46.762;23.598;2023-01-16T17:37:26;38.00;;;17.90;;
61358;SDS011;47228;46.762;23.598;2023-01-16T17:39:54;34.40;;;17.40;;
61358;SDS011;47228;46.762;23.598;2023-01-16T17:42:22;35.30;;;17.80;;
61358;SDS011;47228;46.762;23.598;2023-01-16T17:45:21;32.70;;;16.90;;
61358;SDS011;47228;46.762;23.598;2023-01-16T17:48:21;39.40;;;17.90;;
61358;SDS011;47228;46.762;23.598;2023-01-16T17:50:51;38.20;;;18.10;;
61358;SDS011;47228;46.762;23.598;2023-01-16T17:53:20;33.80;;;16.10;;
61358;SDS011;47228;46.762;23.598;2023-01-16T17:55:50;36.50;;;18.10;;